createdAt,value
2024-01-21T00:01:39.313Z,7.07
2024-01-21T00:04:08.613Z,7.07
2024-01-21T00:06:35.968Z,6.93
2024-01-21T00:09:03.028Z,6.75
2024-01-21T00:11:30.181Z,6.91
2024-01-21T00:13:57.291Z,6.89
2024-01-21T00:16:24.570Z,6.80
2024-01-21T00:18:51.879Z,6.88
2024-01-21T00:21:19.068Z,6.91
2024-01-21T00:23:47.920Z,6.89
2024-01-21T00:26:14.915Z,6.79
2024-01-21T00:28:42.211Z,6.95
2024-01-21T00:31:09.462Z,6.90
2024-01-21T00:33:36.851Z,6.97
2024-01-21T00:36:04.130Z,7.13
2024-01-21T00:38:31.061Z,7.23
2024-01-21T00:40:57.939Z,7.16
2024-01-21T00:43:24.880Z,7.20
2024-01-21T00:45:53.439Z,7.10
2024-01-21T00:48:20.716Z,7.01
2024-01-21T00:50:47.728Z,7.16
2024-01-21T00:53:15.561Z,7.12
2024-01-21T00:55:42.575Z,7.08
2024-01-21T00:58:09.597Z,6.95
2024-01-21T01:00:36.868Z,6.91
2024-01-21T01:03:05.553Z,6.92
2024-01-21T01:05:32.894Z,6.99
2024-01-21T01:08:00.021Z,7.03
2024-01-21T01:10:27.146Z,7.00
2024-01-21T01:12:54.282Z,7.06
2024-01-21T01:15:21.398Z,6.94
2024-01-21T01:17:52.998Z,6.88
2024-01-21T01:20:20.873Z,6.98
2024-01-21T01:22:47.929Z,7.05
2024-01-21T01:25:15.128Z,6.97
2024-01-21T01:27:42.215Z,6.84
2024-01-21T01:30:09.925Z,7.06
2024-01-21T01:32:36.909Z,7.12
2024-01-21T01:35:06.410Z,7.15
2024-01-21T01:37:33.635Z,6.97
2024-01-21T01:40:00.707Z,7.04
2024-01-21T01:42:27.791Z,6.91
2024-01-21T01:44:54.961Z,7.13
2024-01-21T01:47:22.003Z,7.08
2024-01-21T01:49:49.188Z,7.04
2024-01-21T01:52:17.485Z,7.06
2024-01-21T01:54:47.632Z,7.03
2024-01-21T01:57:16.910Z,7.14
2024-01-21T01:59:43.910Z,7.16
2024-01-21T02:02:12.108Z,7.13
2024-01-21T02:04:39.364Z,7.08
2024-01-21T02:07:06.777Z,6.94
2024-01-21T02:09:33.816Z,6.81
2024-01-21T02:12:00.972Z,6.82
2024-01-21T02:14:28.066Z,6.71
2024-01-21T02:16:55.152Z,6.68
2024-01-21T02:19:28.199Z,6.76
2024-01-21T02:21:56.553Z,6.69
2024-01-21T02:24:32.753Z,6.63
2024-01-21T02:27:00.161Z,6.63
2024-01-21T02:29:27.536Z,6.78
2024-01-21T02:31:56.124Z,6.68
2024-01-21T02:34:23.103Z,6.70
2024-01-21T02:36:50.151Z,6.62
2024-01-21T02:39:17.498Z,6.73
2024-01-21T02:41:44.451Z,6.64
2024-01-21T02:44:11.412Z,6.63
2024-01-21T02:46:38.432Z,6.65
2024-01-21T02:49:05.459Z,6.74
2024-01-21T02:51:32.589Z,6.73
2024-01-21T02:53:59.575Z,6.89
2024-01-21T02:56:30.509Z,6.84
2024-01-21T02:58:57.883Z,6.89
2024-01-21T03:01:24.972Z,6.82
2024-01-21T03:03:52.039Z,6.78
2024-01-21T03:06:19.663Z,6.81
2024-01-21T03:08:47.075Z,6.88
2024-01-21T03:11:14.252Z,6.88
2024-01-21T03:13:41.101Z,6.69
2024-01-21T03:16:08.371Z,6.74
2024-01-21T03:18:40.253Z,6.79
2024-01-21T03:21:11.124Z,6.88
2024-01-21T03:23:38.174Z,6.85
2024-01-21T03:26:05.298Z,6.89
2024-01-21T03:28:32.352Z,6.81
2024-01-21T03:30:59.520Z,6.73
2024-01-21T03:33:27.454Z,6.85
2024-01-21T03:35:54.590Z,6.76
2024-01-21T03:38:22.206Z,6.83
2024-01-21T03:40:49.317Z,6.82
2024-01-21T03:43:16.359Z,6.83
2024-01-21T03:45:43.783Z,6.85
2024-01-21T03:48:11.180Z,6.81
2024-01-21T03:50:38.461Z,6.84
2024-01-21T03:53:05.556Z,6.83
2024-01-21T03:55:32.645Z,6.70
2024-01-21T03:57:59.760Z,6.76
2024-01-21T04:00:26.915Z,6.73
2024-01-21T04:02:54.016Z,6.72
2024-01-21T04:05:21.233Z,6.77
2024-01-21T04:07:48.189Z,6.86
2024-01-21T04:10:15.264Z,6.95
2024-01-21T04:12:42.224Z,6.84
2024-01-21T04:15:09.608Z,6.84
2024-01-21T04:17:36.748Z,6.81
2024-01-21T04:20:04.182Z,6.90
2024-01-21T04:22:34.240Z,6.93
2024-01-21T04:25:01.085Z,6.93
2024-01-21T04:27:28.132Z,6.97
2024-01-21T04:29:55.231Z,7.15
2024-01-21T04:32:22.498Z,7.04
2024-01-21T04:34:49.447Z,6.99
2024-01-21T04:37:16.493Z,6.91
2024-01-21T04:39:43.428Z,6.92
2024-01-21T04:42:10.852Z,7.06
2024-01-21T04:44:37.767Z,6.94
2024-01-21T04:47:04.979Z,6.94
2024-01-21T04:49:31.984Z,7.05
2024-01-21T04:51:59.400Z,7.00
2024-01-21T04:54:26.365Z,7.06
2024-01-21T04:56:53.458Z,7.07
2024-01-21T04:59:20.331Z,7.15
2024-01-21T05:01:50.839Z,7.21
2024-01-21T05:04:17.975Z,7.26
2024-01-21T05:06:45.033Z,7.22
2024-01-21T05:09:12.570Z,7.20
2024-01-21T05:11:39.821Z,7.32
2024-01-21T05:14:06.898Z,7.26
2024-01-21T05:16:34.018Z,7.26
2024-01-21T05:19:01.439Z,7.51
2024-01-21T05:21:28.565Z,7.43
2024-01-21T05:23:56.009Z,7.37
2024-01-21T05:26:23.100Z,7.42
2024-01-21T05:28:50.247Z,7.46
2024-01-21T05:31:17.289Z,7.35
2024-01-21T05:33:44.411Z,7.34
2024-01-21T05:36:11.621Z,7.43
2024-01-21T05:38:38.652Z,7.42
2024-01-21T05:41:05.718Z,7.51
2024-01-21T05:43:32.668Z,7.51
2024-01-21T05:45:59.634Z,7.45
2024-01-21T05:48:26.674Z,7.47
2024-01-21T05:50:53.584Z,7.25
2024-01-21T05:53:20.437Z,7.08
2024-01-21T05:55:48.038Z,6.98
2024-01-21T05:58:17.228Z,7.15
2024-01-21T06:00:44.525Z,7.01
2024-01-21T06:03:11.781Z,6.90
2024-01-21T06:05:38.821Z,6.82
2024-01-21T06:08:06.002Z,6.83
2024-01-21T06:10:32.950Z,6.80
2024-01-21T06:12:59.958Z,6.78
2024-01-21T06:15:26.923Z,6.74
2024-01-21T06:17:54.594Z,6.70
2024-01-21T06:20:21.852Z,6.79
2024-01-21T06:22:48.940Z,6.87
2024-01-21T06:25:16.952Z,6.67
2024-01-21T06:27:44.029Z,6.81
2024-01-21T06:30:18.927Z,6.74
2024-01-21T06:32:53.965Z,6.74
2024-01-21T06:35:28.618Z,6.74
2024-01-21T06:37:55.949Z,6.75
2024-01-21T06:40:22.965Z,6.65
2024-01-21T06:42:50.125Z,6.46
2024-01-21T06:45:17.339Z,6.27
2024-01-21T06:47:44.314Z,6.17
2024-01-21T06:50:11.639Z,6.02
2024-01-21T06:52:38.590Z,6.02
2024-01-21T06:55:06.337Z,6.10
2024-01-21T06:57:33.396Z,6.22
2024-01-21T07:00:00.419Z,6.18
2024-01-21T07:02:27.392Z,6.05
2024-01-21T07:04:54.307Z,6.09
2024-01-21T07:07:21.248Z,6.06
2024-01-21T07:09:48.276Z,6.14
2024-01-21T07:12:15.288Z,6.20
2024-01-21T07:14:42.257Z,6.15
2024-01-21T07:17:09.293Z,6.24
2024-01-21T07:19:36.309Z,6.12
2024-01-21T07:22:04.065Z,6.09
2024-01-21T07:24:31.035Z,6.13
2024-01-21T07:26:58.154Z,6.11
2024-01-21T07:29:25.220Z,6.09
2024-01-21T07:31:53.033Z,5.99
2024-01-21T07:34:20.601Z,5.95
2024-01-21T07:36:47.706Z,5.88
2024-01-21T07:39:14.775Z,5.71
2024-01-21T07:41:41.644Z,5.69
2024-01-21T07:44:08.731Z,5.73
2024-01-21T07:46:35.868Z,5.89
2024-01-21T07:49:03.005Z,5.75
2024-01-21T07:51:30.287Z,5.74
2024-01-21T07:53:57.433Z,5.81
2024-01-21T07:56:24.388Z,5.71
2024-01-21T07:58:51.417Z,5.64
2024-01-21T08:01:23.130Z,5.44
2024-01-21T08:03:50.427Z,5.50
2024-01-21T08:06:19.901Z,5.60
2024-01-21T08:08:47.137Z,5.68
2024-01-21T08:11:14.172Z,5.85
2024-01-21T08:13:41.320Z,5.92
2024-01-21T08:16:08.271Z,5.95
2024-01-21T08:18:38.223Z,6.04
2024-01-21T08:21:05.974Z,6.11
2024-01-21T08:23:32.845Z,6.33
2024-01-21T08:25:59.726Z,5.95
2024-01-21T08:28:26.725Z,5.92
2024-01-21T08:30:55.255Z,6.23
2024-01-21T08:33:22.428Z,6.18
2024-01-21T08:35:49.680Z,8.06
2024-01-21T08:38:16.956Z,9.10
2024-01-21T08:40:44.440Z,9.13
2024-01-21T08:43:11.688Z,9.40
2024-01-21T08:45:39.086Z,9.61
2024-01-21T08:48:06.865Z,10.53
2024-01-21T08:50:33.862Z,10.85
2024-01-21T08:53:01.312Z,10.68
2024-01-21T08:55:28.258Z,10.64
2024-01-21T08:57:55.230Z,11.91
2024-01-21T09:00:22.398Z,12.56
2024-01-21T09:02:49.385Z,12.76
2024-01-21T09:05:16.459Z,13.67
2024-01-21T09:07:43.518Z,14.33
2024-01-21T09:10:10.755Z,14.65
2024-01-21T09:12:38.121Z,14.17
2024-01-21T09:15:06.315Z,14.00
2024-01-21T09:17:33.687Z,13.30
2024-01-21T09:20:00.935Z,12.66
2024-01-21T09:22:27.990Z,12.17
2024-01-21T09:24:55.079Z,12.07
2024-01-21T09:27:22.114Z,11.91
2024-01-21T09:29:49.285Z,13.08
2024-01-21T09:32:16.243Z,13.71
2024-01-21T09:34:45.117Z,15.30
2024-01-21T09:37:12.854Z,16.63
2024-01-21T09:39:45.799Z,17.82
2024-01-21T09:42:15.322Z,17.62
2024-01-21T09:44:42.439Z,17.84
2024-01-21T09:47:11.976Z,16.28
2024-01-21T09:49:39.681Z,15.36
2024-01-21T09:52:07.287Z,14.40
2024-01-21T09:54:34.382Z,14.85
2024-01-21T09:57:02.382Z,15.95
2024-01-21T09:59:30.238Z,15.33
2024-01-21T10:01:57.436Z,16.27
2024-01-21T10:04:25.136Z,17.45
2024-01-21T10:06:53.863Z,17.17
2024-01-21T10:09:25.433Z,17.79
2024-01-21T10:11:58.328Z,17.65
2024-01-21T10:14:29.106Z,15.70
2024-01-21T10:17:00.540Z,16.02
2024-01-21T10:19:33.563Z,17.37
2024-01-21T10:22:17.970Z,18.36
2024-01-21T10:24:47.259Z,17.82
2024-01-21T10:27:15.210Z,18.98
2024-01-21T10:29:44.751Z,18.63
2024-01-21T10:32:13.527Z,17.32
2024-01-21T10:34:45.509Z,18.53
2024-01-21T10:37:17.015Z,18.06
2024-01-21T10:39:49.395Z,17.91
2024-01-21T10:42:17.039Z,19.49
2024-01-21T10:44:48.140Z,18.52
2024-01-21T10:47:17.400Z,20.44
2024-01-21T10:49:47.076Z,20.43
2024-01-21T10:52:15.695Z,21.24
2024-01-21T10:54:45.619Z,20.18
2024-01-21T10:57:12.828Z,21.80
2024-01-21T10:59:40.492Z,21.85
2024-01-21T11:02:10.419Z,21.13
2024-01-21T11:04:37.855Z,19.86
2024-01-21T11:07:07.467Z,19.02
2024-01-21T11:09:37.456Z,18.68
2024-01-21T11:12:04.841Z,17.73
2024-01-21T11:14:42.253Z,18.09
2024-01-21T11:17:13.924Z,18.15
2024-01-21T11:19:54.416Z,18.59
2024-01-21T11:22:27.229Z,17.72
2024-01-21T11:24:57.479Z,19.34
2024-01-21T11:27:27.014Z,18.89
2024-01-21T11:30:02.565Z,17.49
2024-01-21T11:32:32.146Z,18.60
2024-01-21T11:35:10.270Z,18.52
2024-01-21T11:37:38.270Z,17.53
2024-01-21T11:40:07.920Z,18.58
2024-01-21T11:42:36.712Z,16.59
2024-01-21T11:45:04.944Z,16.65
2024-01-21T11:47:33.178Z,17.54
2024-01-21T11:50:02.480Z,17.54
2024-01-21T11:52:29.677Z,16.75
2024-01-21T11:54:56.767Z,17.21
2024-01-21T11:57:23.948Z,19.13
2024-01-21T11:59:51.142Z,18.38
2024-01-21T12:02:18.675Z,18.06
2024-01-21T12:04:48.512Z,16.60
2024-01-21T12:07:16.833Z,16.60
2024-01-21T12:09:44.207Z,17.62
2024-01-21T12:12:11.330Z,17.79
2024-01-21T12:14:39.376Z,17.82
2024-01-21T12:17:06.445Z,17.76
2024-01-21T12:19:33.809Z,17.67
2024-01-21T12:22:01.333Z,16.98
2024-01-21T12:24:28.506Z,17.42
2024-01-21T12:26:58.510Z,18.36
2024-01-21T12:29:26.536Z,17.79
2024-01-21T12:31:53.884Z,17.56
2024-01-21T12:34:21.550Z,16.55
2024-01-21T12:36:51.610Z,17.21
2024-01-21T12:39:23.217Z,16.87
2024-01-21T12:41:50.718Z,17.53
2024-01-21T12:44:17.726Z,17.53
2024-01-21T12:46:46.897Z,18.20
2024-01-21T12:49:14.449Z,17.85
2024-01-21T12:51:44.118Z,17.59
2024-01-21T12:54:11.308Z,17.17
2024-01-21T12:56:38.505Z,16.99
2024-01-21T12:59:05.776Z,17.23
2024-01-21T13:01:33.320Z,18.30
2024-01-21T13:04:00.583Z,17.54
2024-01-21T13:06:28.066Z,18.16
2024-01-21T13:08:55.295Z,17.88
2024-01-21T13:11:22.820Z,17.36
2024-01-21T13:13:49.969Z,17.22
2024-01-21T13:16:17.101Z,17.70
2024-01-21T13:18:44.605Z,17.30
2024-01-21T13:21:13.917Z,18.02
2024-01-21T13:23:41.328Z,17.79
2024-01-21T13:26:09.434Z,17.32
2024-01-21T13:28:55.191Z,17.30
2024-01-21T13:31:22.357Z,18.39
2024-01-21T13:33:49.716Z,18.16
2024-01-21T13:36:17.217Z,17.74
2024-01-21T13:38:45.092Z,17.77
2024-01-21T13:41:12.361Z,17.56
2024-01-21T13:43:40.139Z,17.05
2024-01-21T13:46:09.356Z,16.98
2024-01-21T13:48:36.638Z,17.97
2024-01-21T13:51:05.723Z,17.37
2024-01-21T13:53:33.141Z,17.63
2024-01-21T13:56:00.191Z,17.80
2024-01-21T13:58:27.441Z,17.23
2024-01-21T14:00:54.701Z,16.52
2024-01-21T14:03:21.772Z,16.95
2024-01-21T14:05:49.542Z,16.92
2024-01-21T14:08:16.697Z,16.90
2024-01-21T14:10:43.836Z,16.59
2024-01-21T14:13:10.807Z,16.96
2024-01-21T14:15:38.149Z,17.02
2024-01-21T14:18:06.527Z,17.14
2024-01-21T14:20:33.630Z,16.30
2024-01-21T14:23:00.767Z,15.91
2024-01-21T14:25:41.158Z,15.45
2024-01-21T14:28:08.351Z,15.06
2024-01-21T14:30:36.705Z,14.92
2024-01-21T14:33:05.439Z,14.93
2024-01-21T14:35:33.610Z,14.89
2024-01-21T14:38:01.029Z,14.84
2024-01-21T14:40:28.657Z,14.83
2024-01-21T14:42:56.411Z,14.81
2024-01-21T14:45:23.619Z,14.94
2024-01-21T14:47:51.208Z,14.81
2024-01-21T14:50:18.726Z,14.70
2024-01-21T14:52:47.820Z,14.82
2024-01-21T14:55:15.283Z,14.84
2024-01-21T14:57:45.051Z,14.84
2024-01-21T15:00:13.788Z,14.95
2024-01-21T15:02:41.222Z,14.88
2024-01-21T15:05:08.809Z,14.90
2024-01-21T15:07:37.207Z,14.96
2024-01-21T15:10:06.349Z,14.83
2024-01-21T15:12:34.200Z,14.82
2024-01-21T15:15:06.393Z,14.91
2024-01-21T15:17:33.818Z,14.96
2024-01-21T15:20:00.931Z,14.91
2024-01-21T15:22:27.917Z,15.00
2024-01-21T15:24:54.946Z,14.91
2024-01-21T15:27:22.876Z,14.90
2024-01-21T15:29:49.990Z,14.93
2024-01-21T15:32:17.719Z,14.88
2024-01-21T15:34:44.981Z,14.74
2024-01-21T15:37:12.233Z,14.75
2024-01-21T15:39:39.307Z,14.62
2024-01-21T15:42:08.989Z,14.61
2024-01-21T15:44:36.716Z,14.66
2024-01-21T15:47:03.908Z,14.68
2024-01-21T15:49:31.278Z,14.86
2024-01-21T15:51:58.542Z,14.86
2024-01-21T15:54:26.261Z,14.80
2024-01-21T15:56:53.442Z,14.66
2024-01-21T15:59:20.960Z,14.65
2024-01-21T16:01:48.525Z,14.58
2024-01-21T16:04:15.831Z,14.42
2024-01-21T16:06:43.294Z,14.33
2024-01-21T16:09:10.367Z,14.49
2024-01-21T16:11:37.532Z,14.32
2024-01-21T16:14:05.015Z,14.44
2024-01-21T16:16:32.012Z,14.45
2024-01-21T16:18:59.356Z,14.36
2024-01-21T16:21:26.648Z,14.39
2024-01-21T16:23:53.644Z,14.42
2024-01-21T16:26:20.673Z,14.54
2024-01-21T16:28:47.916Z,14.41
2024-01-21T16:31:14.997Z,14.32
2024-01-21T16:33:42.099Z,14.18
2024-01-21T16:36:09.262Z,14.00
2024-01-21T16:38:36.231Z,13.93
2024-01-21T16:41:03.590Z,13.95
2024-01-21T16:43:30.562Z,14.00
2024-01-21T16:45:57.602Z,13.98
2024-01-21T16:48:27.079Z,13.85
2024-01-21T16:50:57.430Z,13.86
2024-01-21T16:53:30.113Z,13.85
2024-01-21T16:55:57.565Z,13.74
2024-01-21T16:58:24.489Z,13.73
2024-01-21T17:00:54.070Z,14.09
2024-01-21T17:03:22.373Z,13.95
2024-01-21T17:05:49.420Z,13.97
2024-01-21T17:08:16.588Z,13.91
2024-01-21T17:11:14.178Z,13.81
2024-01-21T17:13:41.133Z,13.92
2024-01-21T17:16:08.702Z,13.91
2024-01-21T17:18:42.253Z,13.81
2024-01-21T17:21:09.608Z,13.83
2024-01-21T17:23:36.581Z,13.79
2024-01-21T17:26:04.453Z,13.70
2024-01-21T17:28:31.374Z,13.72
2024-01-21T17:30:58.309Z,13.66
2024-01-21T17:33:27.015Z,13.56
2024-01-21T17:35:54.191Z,13.44
2024-01-21T17:38:21.408Z,13.33
2024-01-21T17:40:48.275Z,13.48
2024-01-21T17:43:15.176Z,13.60
2024-01-21T17:45:42.182Z,13.57
2024-01-21T17:48:09.411Z,13.43
2024-01-21T17:50:36.638Z,13.79
2024-01-21T17:53:03.683Z,13.46
2024-01-21T17:55:30.780Z,13.46
2024-01-21T17:57:57.676Z,13.62
2024-01-21T18:00:24.926Z,13.48
2024-01-21T18:02:52.071Z,13.58
2024-01-21T18:05:19.460Z,13.53
2024-01-21T18:07:46.410Z,13.56
2024-01-21T18:10:14.027Z,13.49
2024-01-21T18:12:40.930Z,13.44
2024-01-21T18:15:08.589Z,13.69
2024-01-21T18:17:35.744Z,13.63
2024-01-21T18:20:03.340Z,13.39
2024-01-21T18:22:32.085Z,13.42
2024-01-21T18:24:59.295Z,13.36
2024-01-21T18:27:26.242Z,13.32
2024-01-21T18:29:53.349Z,13.33
2024-01-21T18:32:24.977Z,13.34
2024-01-21T18:34:52.877Z,13.24
2024-01-21T18:37:20.172Z,13.34
2024-01-21T18:39:47.897Z,13.36
2024-01-21T18:42:14.902Z,13.23
2024-01-21T18:44:41.892Z,13.34
2024-01-21T18:47:08.816Z,13.22
2024-01-21T18:49:36.036Z,13.15
2024-01-21T18:52:08.814Z,13.25
2024-01-21T18:54:36.365Z,13.31
2024-01-21T18:57:03.620Z,13.51
2024-01-21T18:59:30.720Z,13.55
2024-01-21T19:01:57.974Z,13.36
2024-01-21T19:04:29.842Z,13.42
2024-01-21T19:07:02.477Z,13.71
2024-01-21T19:09:30.467Z,13.53
2024-01-21T19:11:57.889Z,13.50
2024-01-21T19:14:24.867Z,13.36
2024-01-21T19:16:51.737Z,13.13
2024-01-21T19:19:19.062Z,13.27
2024-01-21T19:21:46.248Z,13.13
2024-01-21T19:24:13.308Z,13.06
2024-01-21T19:26:42.069Z,12.98
2024-01-21T19:29:09.300Z,13.03
2024-01-21T19:31:36.257Z,12.89
2024-01-21T19:34:03.374Z,12.98
2024-01-21T19:36:30.416Z,13.05
2024-01-21T19:38:57.389Z,12.84
2024-01-21T19:41:24.382Z,12.89
2024-01-21T19:43:55.074Z,12.89
2024-01-21T19:46:22.735Z,12.74
2024-01-21T19:48:51.465Z,12.76
2024-01-21T19:51:20.537Z,12.77
2024-01-21T19:53:47.853Z,12.65
2024-01-21T19:56:15.068Z,12.73
2024-01-21T19:58:42.301Z,12.59
2024-01-21T20:01:09.480Z,12.74
2024-01-21T20:03:36.816Z,12.68
2024-01-21T20:06:04.648Z,12.65
2024-01-21T20:08:31.917Z,12.71
2024-01-21T20:10:58.992Z,12.70
2024-01-21T20:13:25.923Z,12.59
2024-01-21T20:15:52.848Z,12.63
2024-01-21T20:18:19.978Z,12.60
2024-01-21T20:20:48.516Z,12.68
2024-01-21T20:23:15.651Z,12.68
2024-01-21T20:25:42.635Z,12.76
2024-01-21T20:28:09.581Z,12.66
2024-01-21T20:30:36.557Z,12.74
2024-01-21T20:33:03.638Z,12.78
2024-01-21T20:35:31.812Z,12.76
2024-01-21T20:37:58.795Z,12.78
2024-01-21T20:40:27.070Z,12.82
2024-01-21T20:42:53.973Z,12.90
2024-01-21T20:45:21.048Z,13.05
2024-01-21T20:47:48.181Z,12.92
2024-01-21T20:50:15.157Z,12.90
2024-01-21T20:52:42.097Z,12.91
2024-01-21T20:55:09.162Z,12.85
2024-01-21T20:57:36.142Z,12.80
2024-01-21T21:00:03.296Z,12.73
2024-01-21T21:02:30.329Z,12.75
2024-01-21T21:04:57.437Z,12.72
2024-01-21T21:07:24.429Z,12.69
2024-01-21T21:09:51.277Z,12.74
2024-01-21T21:12:18.333Z,12.70
2024-01-21T21:14:47.030Z,12.75
2024-01-21T21:17:14.307Z,12.77
2024-01-21T21:19:43.010Z,12.71
2024-01-21T21:22:10.241Z,12.79
2024-01-21T21:24:37.096Z,12.76
2024-01-21T21:27:04.419Z,12.74
2024-01-21T21:29:31.395Z,12.76
2024-01-21T21:31:58.368Z,12.76
2024-01-21T21:34:25.866Z,12.79
2024-01-21T21:36:53.263Z,12.74
2024-01-21T21:39:22.465Z,12.72
2024-01-21T21:41:49.910Z,12.71
2024-01-21T21:44:16.948Z,12.74
2024-01-21T21:46:44.450Z,12.75
2024-01-21T21:49:12.268Z,12.71
2024-01-21T21:51:39.931Z,12.64
2024-01-21T21:54:07.337Z,12.70
2024-01-21T21:56:34.392Z,12.74
2024-01-21T21:59:02.371Z,12.56
2024-01-21T22:01:32.010Z,12.55
2024-01-21T22:03:59.073Z,12.57
2024-01-21T22:06:26.714Z,12.57
2024-01-21T22:08:54.525Z,12.72
2024-01-21T22:11:22.090Z,12.69
2024-01-21T22:13:49.528Z,12.70
2024-01-21T22:16:17.748Z,12.62
2024-01-21T22:18:45.218Z,12.61
2024-01-21T22:21:20.132Z,12.59
2024-01-21T22:23:47.680Z,12.67
2024-01-21T22:26:15.421Z,12.63
2024-01-21T22:28:42.807Z,12.55
2024-01-21T22:31:09.807Z,12.51
2024-01-21T22:33:37.207Z,12.59
2024-01-21T22:36:04.488Z,12.57
2024-01-21T22:38:31.660Z,12.50
2024-01-21T22:40:59.081Z,12.50
2024-01-21T22:43:26.077Z,12.50
2024-01-21T22:45:53.632Z,12.47
2024-01-21T22:48:20.879Z,12.57
2024-01-21T22:50:48.023Z,12.61
2024-01-21T22:53:14.986Z,12.43
2024-01-21T22:55:41.981Z,12.48
2024-01-21T22:58:08.897Z,12.61
2024-01-21T23:00:35.940Z,12.54
2024-01-21T23:03:03.394Z,12.52
2024-01-21T23:05:30.339Z,12.55
2024-01-21T23:07:57.341Z,12.45
2024-01-21T23:10:24.204Z,12.52
2024-01-21T23:12:51.081Z,12.56
2024-01-21T23:15:18.010Z,12.63
2024-01-21T23:17:45.115Z,12.51
2024-01-21T23:20:13.016Z,12.44
2024-01-21T23:22:39.950Z,12.46
2024-01-21T23:25:07.485Z,12.65
2024-01-21T23:27:34.491Z,12.62
2024-01-21T23:30:01.699Z,12.52
2024-01-21T23:32:28.702Z,12.52
2024-01-21T23:34:55.658Z,12.66
2024-01-21T23:37:23.497Z,12.68
2024-01-21T23:39:50.530Z,12.73
2024-01-21T23:42:17.592Z,12.71
2024-01-21T23:44:44.614Z,12.59
2024-01-21T23:47:11.494Z,12.49
2024-01-21T23:49:43.555Z,12.55
2024-01-21T23:52:10.590Z,12.50
2024-01-21T23:54:42.103Z,12.53
2024-01-21T23:57:09.382Z,12.70
2024-01-21T23:59:36.767Z,12.70
